DLH1AN EDDS-EDDF
Flight info
| Callsign | DLH1AN |
|---|---|
| Flight time | 0h 22m |
| Altitude | 22000 |
| Route | ETASA4B ETASA T163 SPESA SPESA4B |
| Aircraft | A320/M-SDE3FGHIRWY/LB1 |
Departure
| Time | 2026-05-07 14:34 |
|---|---|
| Airport | Stuttgart Airport (EDDS) |
Arrival
| Time | 2026-05-07 14:57 |
|---|---|
| Airport | Frankfurt Main Airport (EDDF) |
| Time | Latitude | Longitude | Altitude | Speed | Heading |
|---|---|---|---|---|---|
| 2026-05-07 14:09 | 48.68894 | 9.19431 | 1289 ft | 0 kts | 343° |
| 2026-05-07 14:24 | 48.68878 | 9.19439 | 1287 ft | 2 kts | 343° |
| 2026-05-07 14:24 | 48.68862 | 9.19447 | 1288 ft | 2 kts | 3° |
| 2026-05-07 14:25 | 48.68845 | 9.19444 | 1287 ft | 2 kts | 23° |
| 2026-05-07 14:25 | 48.68832 | 9.19429 | 1291 ft | 2 kts | 55° |
| 2026-05-07 14:25 | 48.68821 | 9.19411 | 1291 ft | 2 kts | 37° |
| 2026-05-07 14:25 | 48.68814 | 9.19405 | 1288 ft | 1 kts | 43° |
| 2026-05-07 14:26 | 48.68807 | 9.19396 | 1288 ft | 1 kts | 73° |
| 2026-05-07 14:26 | 48.68806 | 9.19395 | 1288 ft | 0 kts | 73° |
| 2026-05-07 14:27 | 48.68810 | 9.19414 | 1290 ft | 7 kts | 73° |
| 2026-05-07 14:28 | 48.68824 | 9.19489 | 1286 ft | 7 kts | 74° |
| 2026-05-07 14:28 | 48.68837 | 9.19558 | 1287 ft | 9 kts | 74° |
| 2026-05-07 14:28 | 48.68863 | 9.19685 | 1288 ft | 13 kts | 75° |
| 2026-05-07 14:28 | 48.68886 | 9.19810 | 1285 ft | 12 kts | 74° |
| 2026-05-07 14:29 | 48.68850 | 9.19884 | 1285 ft | 9 kts | 159° |
| 2026-05-07 14:29 | 48.68814 | 9.19940 | 1286 ft | 6 kts | 95° |
| 2026-05-07 14:29 | 48.68828 | 9.20003 | 1285 ft | 8 kts | 62° |
| 2026-05-07 14:29 | 48.68849 | 9.20096 | 1288 ft | 12 kts | 75° |
| 2026-05-07 14:30 | 48.68879 | 9.20256 | 1288 ft | 19 kts | 73° |
| 2026-05-07 14:30 | 48.68923 | 9.20486 | 1286 ft | 27 kts | 73° |
| 2026-05-07 14:30 | 48.68976 | 9.20768 | 1289 ft | 29 kts | 75° |
| 2026-05-07 14:30 | 48.69033 | 9.21062 | 1285 ft | 30 kts | 75° |
| 2026-05-07 14:31 | 48.69090 | 9.21366 | 1285 ft | 31 kts | 73° |
| 2026-05-07 14:31 | 48.69151 | 9.21681 | 1288 ft | 32 kts | 74° |
| 2026-05-07 14:31 | 48.69211 | 9.22005 | 1285 ft | 32 kts | 74° |
| 2026-05-07 14:31 | 48.69272 | 9.22323 | 1285 ft | 33 kts | 74° |
| 2026-05-07 14:32 | 48.69296 | 9.22455 | 1286 ft | 33 kts | 74° |
| 2026-05-07 14:32 | 48.69361 | 9.22792 | 1285 ft | 34 kts | 74° |
| 2026-05-07 14:32 | 48.69405 | 9.23076 | 1285 ft | 18 kts | 100° |
| 2026-05-07 14:32 | 48.69312 | 9.23150 | 1285 ft | 16 kts | 197° |
| 2026-05-07 14:33 | 48.69232 | 9.23045 | 1287 ft | 16 kts | 224° |
| 2026-05-07 14:33 | 48.69142 | 9.22888 | 1285 ft | 24 kts | 236° |
| 2026-05-07 14:33 | 48.69053 | 9.22536 | 1287 ft | 66 kts | 254° |
| 2026-05-07 14:33 | 48.68858 | 9.21510 | 1286 ft | 133 kts | 255° |
| 2026-05-07 14:34 | 48.68562 | 9.19991 | 1601 ft | 156 kts | 257° |
| 2026-05-07 14:34 | 48.68249 | 9.18399 | 2295 ft | 162 kts | 257° |
| 2026-05-07 14:34 | 48.67897 | 9.16661 | 2706 ft | 189 kts | 255° |
| 2026-05-07 14:34 | 48.67442 | 9.14552 | 2855 ft | 230 kts | 253° |
| 2026-05-07 14:35 | 48.66942 | 9.12172 | 3575 ft | 236 kts | 263° |
| 2026-05-07 14:35 | 48.67079 | 9.09796 | 4609 ft | 225 kts | 292° |
| 2026-05-07 14:35 | 48.68057 | 9.08045 | 5544 ft | 222 kts | 326° |
| 2026-05-07 14:35 | 48.69474 | 9.06900 | 6013 ft | 240 kts | 332° |
| 2026-05-07 14:36 | 48.71057 | 9.05792 | 6461 ft | 262 kts | 339° |
| 2026-05-07 14:36 | 48.72815 | 9.04854 | 7173 ft | 271 kts | 337° |
| 2026-05-07 14:36 | 48.74606 | 9.03886 | 8044 ft | 276 kts | 338° |
| 2026-05-07 14:36 | 48.76429 | 9.02909 | 8912 ft | 280 kts | 338° |
| 2026-05-07 14:37 | 48.78296 | 9.01987 | 9781 ft | 286 kts | 346° |
| 2026-05-07 14:37 | 48.82264 | 9.02837 | 11171 ft | 309 kts | 20° |
| 2026-05-07 14:37 | 48.84383 | 9.03873 | 11416 ft | 331 kts | 12° |
| 2026-05-07 14:38 | 48.86716 | 9.04551 | 11630 ft | 352 kts | 7° |
| 2026-05-07 14:38 | 48.89178 | 9.05062 | 12172 ft | 361 kts | 5° |
| 2026-05-07 14:38 | 48.91681 | 9.05546 | 12894 ft | 365 kts | 5° |
| 2026-05-07 14:38 | 48.94210 | 9.06081 | 13664 ft | 368 kts | 7° |
| 2026-05-07 14:39 | 48.96745 | 9.06682 | 14415 ft | 369 kts | 8° |
| 2026-05-07 14:39 | 48.99290 | 9.07341 | 15101 ft | 373 kts | 8° |
| 2026-05-07 14:39 | 49.01864 | 9.08044 | 15772 ft | 378 kts | 9° |
| 2026-05-07 14:39 | 49.04464 | 9.08772 | 16418 ft | 383 kts | 8° |
| 2026-05-07 14:40 | 49.07095 | 9.09515 | 17039 ft | 387 kts | 8° |
| 2026-05-07 14:40 | 49.09756 | 9.10265 | 17633 ft | 391 kts | 8° |
| 2026-05-07 14:40 | 49.12445 | 9.11016 | 18228 ft | 395 kts | 8° |
| 2026-05-07 14:40 | 49.15164 | 9.11770 | 18758 ft | 399 kts | 7° |
| 2026-05-07 14:41 | 49.17909 | 9.12524 | 19324 ft | 402 kts | 8° |
| 2026-05-07 14:41 | 49.20683 | 9.13204 | 19894 ft | 404 kts | 5° |
| 2026-05-07 14:41 | 49.23474 | 9.13808 | 20443 ft | 407 kts | 7° |
| 2026-05-07 14:41 | 49.26274 | 9.14602 | 20968 ft | 411 kts | 9° |
| 2026-05-07 14:42 | 49.29084 | 9.15542 | 21482 ft | 415 kts | 11° |
| 2026-05-07 14:42 | 49.31902 | 9.16557 | 21924 ft | 418 kts | 11° |
| 2026-05-07 14:42 | 49.34741 | 9.17596 | 22039 ft | 423 kts | 11° |
| 2026-05-07 14:42 | 49.37654 | 9.18629 | 21957 ft | 434 kts | 10° |
| 2026-05-07 14:43 | 49.40595 | 9.19640 | 21694 ft | 432 kts | 11° |
| 2026-05-07 14:43 | 49.43529 | 9.20620 | 21436 ft | 431 kts | 10° |
| 2026-05-07 14:43 | 49.46459 | 9.21579 | 21175 ft | 429 kts | 10° |
| 2026-05-07 14:43 | 49.49369 | 9.22528 | 20917 ft | 427 kts | 10° |
| 2026-05-07 14:44 | 49.52275 | 9.23476 | 20667 ft | 426 kts | 10° |
| 2026-05-07 14:44 | 49.55166 | 9.24425 | 20411 ft | 424 kts | 10° |
| 2026-05-07 14:44 | 49.58008 | 9.25363 | 20162 ft | 423 kts | 10° |
| 2026-05-07 14:44 | 49.60884 | 9.26253 | 19921 ft | 420 kts | 5° |
| 2026-05-07 14:45 | 49.63761 | 9.26168 | 19524 ft | 411 kts | 347° |
| 2026-05-07 14:45 | 49.66426 | 9.24722 | 19038 ft | 405 kts | 329° |
| 2026-05-07 14:45 | 49.68785 | 9.22377 | 18560 ft | 402 kts | 324° |
| 2026-05-07 14:45 | 49.71087 | 9.19945 | 18024 ft | 400 kts | 324° |
| 2026-05-07 14:46 | 49.73363 | 9.17524 | 17191 ft | 395 kts | 324° |
| 2026-05-07 14:46 | 49.75605 | 9.15118 | 16412 ft | 390 kts | 324° |
| 2026-05-07 14:46 | 49.77820 | 9.12723 | 15641 ft | 386 kts | 324° |
| 2026-05-07 14:46 | 49.80001 | 9.10345 | 14893 ft | 382 kts | 324° |
| 2026-05-07 14:47 | 49.82128 | 9.08012 | 14174 ft | 378 kts | 324° |
| 2026-05-07 14:47 | 49.84283 | 9.05630 | 13390 ft | 374 kts | 324° |
| 2026-05-07 14:47 | 49.86486 | 9.03660 | 12573 ft | 369 kts | 338° |
| 2026-05-07 14:47 | 49.88971 | 9.02903 | 11548 ft | 364 kts | 359° |
| 2026-05-07 14:48 | 49.91458 | 9.03481 | 10549 ft | 361 kts | 13° |
| 2026-05-07 14:48 | 49.93866 | 9.04482 | 9290 ft | 358 kts | 14° |
| 2026-05-07 14:48 | 49.96275 | 9.05510 | 7834 ft | 359 kts | 14° |
| 2026-05-07 14:48 | 49.98670 | 9.06532 | 6450 ft | 357 kts | 14° |
| 2026-05-07 14:49 | 50.01056 | 9.07545 | 5107 ft | 353 kts | 14° |
| 2026-05-07 14:49 | 50.03353 | 9.08518 | 4462 ft | 329 kts | 13° |
| 2026-05-07 14:49 | 50.05507 | 9.08793 | 4215 ft | 296 kts | 351° |
| 2026-05-07 14:49 | 50.07412 | 9.08137 | 4081 ft | 266 kts | 344° |
| 2026-05-07 14:50 | 50.09117 | 9.07434 | 4000 ft | 240 kts | 344° |
| 2026-05-07 14:50 | 50.10562 | 9.06448 | 4006 ft | 223 kts | 319° |
| 2026-05-07 14:50 | 50.11415 | 9.04495 | 4008 ft | 222 kts | 286° |
| 2026-05-07 14:50 | 50.11646 | 9.02104 | 4016 ft | 225 kts | 276° |
| 2026-05-07 14:51 | 50.11732 | 8.99677 | 4012 ft | 225 kts | 274° |
| 2026-05-07 14:51 | 50.11802 | 8.97242 | 4009 ft | 224 kts | 274° |
| 2026-05-07 14:51 | 50.11872 | 8.94811 | 4009 ft | 225 kts | 274° |
| 2026-05-07 14:51 | 50.11895 | 8.92386 | 4005 ft | 222 kts | 264° |
| 2026-05-07 14:52 | 50.11481 | 8.90146 | 4006 ft | 210 kts | 251° |
| 2026-05-07 14:52 | 50.10964 | 8.88032 | 4010 ft | 209 kts | 251° |
| 2026-05-07 14:52 | 50.10464 | 8.85947 | 3981 ft | 200 kts | 252° |
| 2026-05-07 14:52 | 50.09995 | 8.83964 | 3801 ft | 196 kts | 252° |
| 2026-05-07 14:53 | 50.09528 | 8.81979 | 3554 ft | 194 kts | 252° |
| 2026-05-07 14:53 | 50.09061 | 8.80000 | 3295 ft | 195 kts | 252° |
| 2026-05-07 14:53 | 50.08596 | 8.78026 | 3031 ft | 195 kts | 251° |
| 2026-05-07 14:53 | 50.08126 | 8.76036 | 2764 ft | 197 kts | 252° |
| 2026-05-07 14:54 | 50.07654 | 8.74038 | 2493 ft | 197 kts | 251° |
| 2026-05-07 14:54 | 50.07225 | 8.72033 | 2202 ft | 192 kts | 257° |
| 2026-05-07 14:54 | 50.06959 | 8.70036 | 1901 ft | 184 kts | 261° |
| 2026-05-07 14:54 | 50.06679 | 8.68165 | 1673 ft | 169 kts | 257° |
| 2026-05-07 14:55 | 50.06359 | 8.66492 | 1477 ft | 156 kts | 255° |
| 2026-05-07 14:55 | 50.06019 | 8.64919 | 1160 ft | 150 kts | 250° |
| 2026-05-07 14:55 | 50.05652 | 8.63466 | 969 ft | 139 kts | 249° |
| 2026-05-07 14:55 | 50.05308 | 8.62085 | 825 ft | 135 kts | 250° |
| 2026-05-07 14:56 | 50.05012 | 8.60721 | 666 ft | 133 kts | 251° |
| 2026-05-07 14:56 | 50.04682 | 8.59404 | 477 ft | 126 kts | 248° |
| 2026-05-07 14:56 | 50.04376 | 8.58133 | 368 ft | 121 kts | 250° |
| 2026-05-07 14:56 | 50.04144 | 8.57155 | 366 ft | 72 kts | 250° |
| 2026-05-07 14:57 | 50.04040 | 8.56713 | 359 ft | 36 kts | 250° |
| 2026-05-07 14:57 | 50.03992 | 8.56393 | 356 ft | 26 kts | 277° |
| 2026-05-07 14:57 | 50.04014 | 8.56171 | 361 ft | 10 kts | 280° |
| 2026-05-07 14:57 | 50.04016 | 8.56149 | 360 ft | 0 kts | 279° |
| 2026-05-07 14:58 | 50.04018 | 8.56131 | 359 ft | 6 kts | 279° |
| 2026-05-07 14:59 | 50.04067 | 8.56121 | 364 ft | 11 kts | 33° |
| 2026-05-07 14:59 | 50.04108 | 8.56200 | 360 ft | 9 kts | 67° |
| 2026-05-07 14:59 | 50.04136 | 8.56317 | 359 ft | 15 kts | 70° |
| 2026-05-07 14:59 | 50.04182 | 8.56510 | 359 ft | 21 kts | 70° |
| 2026-05-07 15:00 | 50.04232 | 8.56720 | 361 ft | 21 kts | 69° |
| 2026-05-07 15:00 | 50.04307 | 8.56816 | 359 ft | 9 kts | 12° |
| 2026-05-07 15:00 | 50.04364 | 8.56833 | 359 ft | 8 kts | 10° |
| 2026-05-07 15:00 | 50.04416 | 8.56847 | 363 ft | 7 kts | 9° |
| 2026-05-07 15:01 | 50.04491 | 8.56870 | 360 ft | 17 kts | 12° |
| 2026-05-07 15:01 | 50.04610 | 8.56912 | 360 ft | 17 kts | 12° |
| 2026-05-07 15:01 | 50.04709 | 8.56974 | 362 ft | 14 kts | 24° |
| 2026-05-07 15:01 | 50.04791 | 8.57031 | 363 ft | 12 kts | 25° |
| 2026-05-07 15:02 | 50.04846 | 8.57085 | 360 ft | 5 kts | 76° |
| 2026-05-07 15:02 | 50.04829 | 8.57129 | 360 ft | 4 kts | 117° |
| 2026-05-07 15:02 | 50.04821 | 8.57155 | 362 ft | 4 kts | 115° |
| 2026-05-07 15:02 | 50.04814 | 8.57179 | 360 ft | 0 kts | 115° |